sensor_id;sensor_type;location;lat;lon;timestamp;P1;durP1;ratioP1;P2;durP2;ratioP2
57329;SDS011;43163;51.032;18.280;2022-10-17T00:03:28;27.90;;;19.00;;
57329;SDS011;43163;51.032;18.280;2022-10-17T00:13:25;30.70;;;19.90;;
57329;SDS011;43163;51.032;18.280;2022-10-17T00:23:11;25.30;;;15.10;;
57329;SDS011;43163;51.032;18.280;2022-10-17T00:40:21;33.70;;;19.40;;
57329;SDS011;43163;51.032;18.280;2022-10-17T00:50:18;26.70;;;18.00;;
57329;SDS011;43163;51.032;18.280;2022-10-17T01:00:10;33.90;;;16.50;;
57329;SDS011;43163;51.032;18.280;2022-10-17T01:09:59;24.90;;;15.40;;
57329;SDS011;43163;51.032;18.280;2022-10-17T01:20:41;19.40;;;11.50;;
57329;SDS011;43163;51.032;18.280;2022-10-17T01:31:14;16.10;;;11.40;;
57329;SDS011;43163;51.032;18.280;2022-10-17T01:41:33;19.00;;;14.40;;
57329;SDS011;43163;51.032;18.280;2022-10-17T02:01:40;18.10;;;12.30;;
57329;SDS011;43163;51.032;18.280;2022-10-17T02:12:14;20.40;;;14.40;;
57329;SDS011;43163;51.032;18.280;2022-10-17T02:44:59;18.90;;;13.90;;
57329;SDS011;43163;51.032;18.280;2022-10-17T03:05:11;12.80;;;10.80;;
57329;SDS011;43163;51.032;18.280;2022-10-17T03:15:00;14.50;;;10.90;;
57329;SDS011;43163;51.032;18.280;2022-10-17T03:24:48;15.40;;;8.90;;
57329;SDS011;43163;51.032;18.280;2022-10-17T03:34:36;20.70;;;13.40;;
57329;SDS011;43163;51.032;18.280;2022-10-17T03:44:25;18.30;;;12.90;;
57329;SDS011;43163;51.032;18.280;2022-10-17T03:54:13;15.40;;;9.90;;
57329;SDS011;43163;51.032;18.280;2022-10-17T04:18:53;16.00;;;11.50;;
57329;SDS011;43163;51.032;18.280;2022-10-17T04:28:48;25.90;;;14.60;;
57329;SDS011;43163;51.032;18.280;2022-10-17T04:38:43;11.90;;;7.90;;
57329;SDS011;43163;51.032;18.280;2022-10-17T04:48:37;21.70;;;13.70;;
57329;SDS011;43163;51.032;18.280;2022-10-17T04:58:39;16.70;;;12.40;;
57329;SDS011;43163;51.032;18.280;2022-10-17T05:08:33;37.00;;;26.10;;
57329;SDS011;43163;51.032;18.280;2022-10-17T05:18:26;28.90;;;19.30;;
57329;SDS011;43163;51.032;18.280;2022-10-17T05:28:25;28.50;;;21.80;;
57329;SDS011;43163;51.032;18.280;2022-10-17T05:38:15;34.30;;;24.40;;
57329;SDS011;43163;51.032;18.280;2022-10-17T05:48:01;22.30;;;17.60;;
57329;SDS011;43163;51.032;18.280;2022-10-17T05:57:49;23.40;;;15.50;;
57329;SDS011;43163;51.032;18.280;2022-10-17T06:07:40;26.00;;;18.40;;
57329;SDS011;43163;51.032;18.280;2022-10-17T06:24:53;29.00;;;20.80;;
57329;SDS011;43163;51.032;18.280;2022-10-17T06:42:07;17.80;;;13.10;;
57329;SDS011;43163;51.032;18.280;2022-10-17T06:51:56;21.40;;;13.80;;
57329;SDS011;43163;51.032;18.280;2022-10-17T07:01:44;30.60;;;13.10;;
57329;SDS011;43163;51.032;18.280;2022-10-17T07:11:33;16.00;;;11.90;;
57329;SDS011;43163;51.032;18.280;2022-10-17T07:21:22;10.60;;;8.10;;
57329;SDS011;43163;51.032;18.280;2022-10-17T07:31:11;17.00;;;13.00;;
57329;SDS011;43163;51.032;18.280;2022-10-17T07:41:02;14.40;;;12.20;;
57329;SDS011;43163;51.032;18.280;2022-10-17T07:50:54;17.70;;;12.80;;
57329;SDS011;43163;51.032;18.280;2022-10-17T08:00:44;17.90;;;13.00;;
57329;SDS011;43163;51.032;18.280;2022-10-17T08:10:37;18.30;;;11.50;;
57329;SDS011;43163;51.032;18.280;2022-10-17T08:20:27;15.30;;;11.70;;
57329;SDS011;43163;51.032;18.280;2022-10-17T08:30:16;11.50;;;10.30;;
57329;SDS011;43163;51.032;18.280;2022-10-17T08:40:04;18.00;;;11.40;;
57329;SDS011;43163;51.032;18.280;2022-10-17T08:50:00;8.80;;;7.70;;
57329;SDS011;43163;51.032;18.280;2022-10-17T08:59:51;17.60;;;12.40;;
57329;SDS011;43163;51.032;18.280;2022-10-17T09:18:35;15.20;;;10.90;;
57329;SDS011;43163;51.032;18.280;2022-10-17T09:28:42;18.30;;;11.50;;
57329;SDS011;43163;51.032;18.280;2022-10-17T09:38:44;17.90;;;12.70;;
57329;SDS011;43163;51.032;18.280;2022-10-17T09:48:54;15.40;;;11.90;;
57329;SDS011;43163;51.032;18.280;2022-10-17T09:58:56;12.10;;;9.20;;
57329;SDS011;43163;51.032;18.280;2022-10-17T10:09:29;21.00;;;10.40;;
57329;SDS011;43163;51.032;18.280;2022-10-17T10:19:30;11.90;;;10.10;;
57329;SDS011;43163;51.032;18.280;2022-10-17T10:39:53;15.70;;;11.10;;
57329;SDS011;43163;51.032;18.280;2022-10-17T10:50:27;10.30;;;8.30;;
57329;SDS011;43163;51.032;18.280;2022-10-17T11:12:05;19.80;;;11.40;;
57329;SDS011;43163;51.032;18.280;2022-10-17T11:20:05;21.10;;;13.30;;
57329;SDS011;43163;51.032;18.280;2022-10-17T11:30:45;14.10;;;8.80;;
57329;SDS011;43163;51.032;18.280;2022-10-17T11:40:49;13.40;;;10.30;;
57329;SDS011;43163;51.032;18.280;2022-10-17T11:50:46;15.40;;;10.40;;
57329;SDS011;43163;51.032;18.280;2022-10-17T12:12:00;14.00;;;9.80;;
57329;SDS011;43163;51.032;18.280;2022-10-17T12:32:25;11.70;;;8.90;;
57329;SDS011;43163;51.032;18.280;2022-10-17T13:03:55;12.80;;;9.40;;
57329;SDS011;43163;51.032;18.280;2022-10-17T13:11:27;15.00;;;10.80;;
57329;SDS011;43163;51.032;18.280;2022-10-17T13:21:22;8.70;;;6.00;;
57329;SDS011;43163;51.032;18.280;2022-10-17T13:31:33;10.00;;;7.70;;
57329;SDS011;43163;51.032;18.280;2022-10-17T13:41:34;9.00;;;5.10;;
57329;SDS011;43163;51.032;18.280;2022-10-17T13:58:47;9.80;;;5.90;;
57329;SDS011;43163;51.032;18.280;2022-10-17T14:08:45;5.00;;;3.30;;
57329;SDS011;43163;51.032;18.280;2022-10-17T14:18:48;7.50;;;5.00;;
57329;SDS011;43163;51.032;18.280;2022-10-17T14:29:31;4.70;;;3.80;;
57329;SDS011;43163;51.032;18.280;2022-10-17T14:39:51;18.70;;;6.50;;
57329;SDS011;43163;51.032;18.280;2022-10-17T14:49:47;8.00;;;5.70;;
57329;SDS011;43163;51.032;18.280;2022-10-17T14:59:44;5.60;;;4.00;;
57329;SDS011;43163;51.032;18.280;2022-10-17T15:09:33;7.80;;;4.20;;
57329;SDS011;43163;51.032;18.280;2022-10-17T15:19:23;3.80;;;1.90;;
57329;SDS011;43163;51.032;18.280;2022-10-17T15:29:15;2.90;;;2.60;;
57329;SDS011;43163;51.032;18.280;2022-10-17T15:39:08;6.80;;;4.30;;
57329;SDS011;43163;51.032;18.280;2022-10-17T15:49:01;12.90;;;4.40;;
57329;SDS011;43163;51.032;18.280;2022-10-17T15:59:03;8.20;;;5.30;;
57329;SDS011;43163;51.032;18.280;2022-10-17T16:16:22;6.00;;;5.40;;
57329;SDS011;43163;51.032;18.280;2022-10-17T16:33:45;2.50;;;2.30;;
57329;SDS011;43163;51.032;18.280;2022-10-17T16:44:05;5.00;;;4.00;;
57329;SDS011;43163;51.032;18.280;2022-10-17T16:54:02;9.60;;;7.40;;
57329;SDS011;43163;51.032;18.280;2022-10-17T17:03:50;7.40;;;5.40;;
57329;SDS011;43163;51.032;18.280;2022-10-17T17:13:38;7.10;;;5.40;;
57329;SDS011;43163;51.032;18.280;2022-10-17T17:23:25;8.00;;;6.40;;
57329;SDS011;43163;51.032;18.280;2022-10-17T17:47:51;6.40;;;4.40;;
57329;SDS011;43163;51.032;18.280;2022-10-17T17:57:39;12.70;;;6.40;;
57329;SDS011;43163;51.032;18.280;2022-10-17T18:14:46;8.70;;;7.10;;
57329;SDS011;43163;51.032;18.280;2022-10-17T18:31:57;12.20;;;6.90;;
57329;SDS011;43163;51.032;18.280;2022-10-17T18:41:55;2.30;;;1.80;;
57329;SDS011;43163;51.032;18.280;2022-10-17T18:51:45;2.30;;;1.90;;
57329;SDS011;43163;51.032;18.280;2022-10-17T19:01:38;5.00;;;3.60;;
57329;SDS011;43163;51.032;18.280;2022-10-17T19:11:40;2.00;;;1.90;;
57329;SDS011;43163;51.032;18.280;2022-10-17T19:29:02;15.70;;;5.10;;
57329;SDS011;43163;51.032;18.280;2022-10-17T19:38:55;11.00;;;5.30;;
57329;SDS011;43163;51.032;18.280;2022-10-17T19:48:47;4.00;;;3.30;;
57329;SDS011;43163;51.032;18.280;2022-10-17T19:58:37;10.40;;;5.50;;
57329;SDS011;43163;51.032;18.280;2022-10-17T20:08:34;4.60;;;4.20;;
57329;SDS011;43163;51.032;18.280;2022-10-17T20:18:25;6.20;;;3.80;;
57329;SDS011;43163;51.032;18.280;2022-10-17T20:28:25;3.60;;;2.10;;
57329;SDS011;43163;51.032;18.280;2022-10-17T20:38:14;5.10;;;3.90;;
57329;SDS011;43163;51.032;18.280;2022-10-17T20:48:06;9.40;;;5.80;;
57329;SDS011;43163;51.032;18.280;2022-10-17T20:57:58;6.10;;;4.00;;
57329;SDS011;43163;51.032;18.280;2022-10-17T21:07:47;7.00;;;3.50;;
57329;SDS011;43163;51.032;18.280;2022-10-17T21:25:01;5.50;;;5.00;;
57329;SDS011;43163;51.032;18.280;2022-10-17T21:34:50;6.50;;;5.70;;
57329;SDS011;43163;51.032;18.280;2022-10-17T21:44:38;2.90;;;2.70;;
57329;SDS011;43163;51.032;18.280;2022-10-17T21:54:33;4.80;;;3.60;;
57329;SDS011;43163;51.032;18.280;2022-10-17T22:04:24;4.70;;;2.60;;
57329;SDS011;43163;51.032;18.280;2022-10-17T22:14:21;6.20;;;3.30;;
57329;SDS011;43163;51.032;18.280;2022-10-17T22:24:12;5.30;;;4.60;;
57329;SDS011;43163;51.032;18.280;2022-10-17T22:34:04;7.90;;;4.60;;
57329;SDS011;43163;51.032;18.280;2022-10-17T22:51:16;5.80;;;5.00;;
57329;SDS011;43163;51.032;18.280;2022-10-17T23:01:07;6.50;;;5.00;;
57329;SDS011;43163;51.032;18.280;2022-10-17T23:11:00;12.00;;;4.40;;
57329;SDS011;43163;51.032;18.280;2022-10-17T23:20:49;4.70;;;3.50;;
57329;SDS011;43163;51.032;18.280;2022-10-17T23:37:57;4.70;;;4.20;;
57329;SDS011;43163;51.032;18.280;2022-10-17T23:47:46;5.90;;;3.40;;
57329;SDS011;43163;51.032;18.280;2022-10-17T23:57:36;8.70;;;4.40;;
